Time;durP1;ratioP1;P1;durP2;ratioP2;P2;SDS_P1;SDS_P2;PMS_P1;PMS_P2;Temp;Humidity;BMP_temperature;BMP_pressure;BME280_temperature;BME280_humidity;BME280_pressure;Samples;Min_cycle;Max_cycle;Signal;HPM_P1;HPM_P2
2022/01/21 00:01:24;;;;;;;1.20;0.60;;;0.50;99.90;;;;;;4972564;28;20038;-71
2022/01/21 00:03:50;;;;;;;0.80;0.80;;;0.40;99.90;;;;;;4964805;28;20405;-71
2022/01/21 00:06:16;;;;;;;1.35;0.28;;;0.40;99.90;;;;;;4968326;28;20026;-71
2022/01/21 00:08:44;;;;;;;0.83;0.30;;;0.30;99.90;;;;;;4973034;28;20027;-71
2022/01/21 00:11:12;;;;;;;0.40;0.20;;;0.30;99.90;;;;;;4965584;28;20316;-71
2022/01/21 00:13:38;;;;;;;0.30;0.30;;;0.30;99.90;;;;;;4975304;28;20015;-71
2022/01/21 00:16:05;;;;;;;1.30;0.38;;;0.30;99.90;;;;;;4965499;28;20029;-71
2022/01/21 00:18:35;;;;;;;0.73;0.32;;;0.30;99.90;;;;;;4972182;28;20488;-71
2022/01/21 00:32:01;;;;;;;1.65;0.73;;;0.30;99.90;;;;;;4967139;28;20049;-72
2022/01/21 00:34:27;;;;;;;;;;;0.40;99.90;;;;;;4963348;28;20019;-71
2022/01/21 00:36:55;;;;;;;2.10;0.60;;;0.80;99.90;;;;;;4964424;28;19913;-71
2022/01/21 00:39:24;;;;;;;2.80;0.60;;;0.60;99.90;;;;;;4971846;28;20033;-71
2022/01/21 00:42:00;;;;;;;0.90;0.55;;;0.50;99.90;;;;;;4962430;28;20023;-71
2022/01/21 00:44:26;;;;;;;1.30;0.50;;;0.50;99.90;;;;;;4973628;28;20668;-71
2022/01/21 00:46:52;;;;;;;3.33;0.73;;;0.30;99.90;;;;;;4968871;28;20322;-71
2022/01/21 00:49:19;;;;;;;2.00;0.40;;;0.10;99.90;;;;;;4964523;28;20060;-71
2022/01/21 00:51:45;;;;;;;;;;;0.10;99.90;;;;;;4967488;28;20035;-71
2022/01/21 00:54:11;;;;;;;0.57;0.40;;;0.10;99.90;;;;;;4964561;28;19913;-71
2022/01/21 00:56:36;;;;;;;1.43;0.40;;;0.00;99.90;;;;;;4964188;28;20673;-71
2022/01/21 00:59:02;;;;;;;4.73;0.60;;;0.00;99.90;;;;;;4968613;28;20023;-71
2022/01/21 01:01:28;;;;;;;0.73;0.60;;;0.00;99.90;;;;;;4963770;28;20524;-71
2022/01/21 01:03:54;;;;;;;0.40;0.30;;;0.00;99.90;;;;;;4968732;28;20015;-71
2022/01/21 01:06:19;;;;;;;1.80;0.67;;;0.00;99.90;;;;;;4960495;28;20456;-71
2022/01/21 01:08:49;;;;;;;1.20;0.50;;;-0.10;99.90;;;;;;4970830;28;20030;-71
2022/01/21 01:11:24;;;;;;;3.25;0.70;;;-0.10;99.90;;;;;;4961928;28;20065;-71
2022/01/21 01:22:07;;;;;;;1.20;0.47;;;-0.30;99.90;;;;;;4959621;28;20106;-71
2022/01/21 01:30:01;;;;;;;1.33;0.60;;;-0.40;99.90;;;;;;4966411;28;20364;-71
2022/01/21 01:32:34;;;;;;;3.15;0.82;;;-0.50;99.90;;;;;;4967158;28;20399;-71
2022/01/21 01:35:00;;;;;;;4.32;0.82;;;-0.50;99.90;;;;;;4963557;28;20419;-71
2022/01/21 01:43:06;;;;;;;1.58;0.68;;;-0.50;99.90;;;;;;4966953;28;20118;-72
2022/01/21 01:51:02;;;;;;;6.30;0.82;;;-0.50;99.90;;;;;;4964635;28;20162;-71
2022/01/21 01:53:39;;;;;;;2.15;0.70;;;-0.60;99.90;;;;;;4970516;28;20046;-71
2022/01/21 01:56:07;;;;;;;3.90;0.70;;;-0.60;99.90;;;;;;4966503;28;20055;-71
2022/01/21 01:58:38;;;;;;;1.20;0.73;;;-0.50;99.80;;;;;;4967072;28;20027;-71
2022/01/21 02:01:06;;;;;;;3.47;1.52;;;-0.50;99.70;;;;;;4961698;28;20421;-71
2022/01/21 02:03:32;;;;;;;1.38;0.73;;;-0.50;99.70;;;;;;4971910;28;20682;-71
2022/01/21 02:06:00;;;;;;;2.85;0.52;;;-0.50;99.10;;;;;;4966367;28;20026;-71
2022/01/21 02:08:28;;;;;;;1.02;0.50;;;-0.50;99.20;;;;;;4970331;28;20088;-71
2022/01/21 02:10:54;;;;;;;0.93;0.60;;;-0.50;99.30;;;;;;4973211;28;20035;-71
2022/01/21 02:13:29;;;;;;;1.73;1.03;;;-0.50;98.90;;;;;;4966349;28;20033;-71
2022/01/21 02:16:08;;;;;;;5.60;1.08;;;-0.50;98.50;;;;;;4970727;28;20026;-71
2022/01/21 02:21:29;;;;;;;3.83;1.23;;;-0.60;98.20;;;;;;4971811;28;20033;-71
2022/01/21 02:24:00;;;;;;;4.85;0.88;;;-0.60;98.50;;;;;;4971225;28;20113;-71
2022/01/21 02:26:25;;;;;;;1.27;0.77;;;-0.60;98.10;;;;;;4970066;28;20058;-72
2022/01/21 02:28:53;;;;;;;2.37;0.77;;;-0.60;98.50;;;;;;4969309;28;20104;-71
2022/01/21 02:31:21;;;;;;;3.42;0.88;;;-0.60;98.30;;;;;;4975493;28;20098;-71
2022/01/21 02:33:46;;;;;;;3.58;1.00;;;-0.60;98.50;;;;;;4968397;28;20994;-71
2022/01/21 02:36:12;;;;;;;3.17;0.67;;;-0.50;98.10;;;;;;4968960;28;20019;-71
2022/01/21 02:38:39;;;;;;;4.13;1.00;;;-0.60;97.90;;;;;;4972067;28;20771;-71
2022/01/21 02:41:06;;;;;;;3.25;1.05;;;-0.70;97.60;;;;;;4967838;28;20026;-71
2022/01/21 02:43:32;;;;;;;1.73;0.80;;;-0.60;97.50;;;;;;4966205;28;20035;-71
2022/01/21 02:46:03;;;;;;;5.07;0.90;;;-0.60;97.60;;;;;;4975414;28;20444;-71
2022/01/21 02:48:29;;;;;;;3.08;0.70;;;-0.70;97.60;;;;;;4975451;28;20077;-71
2022/01/21 02:50:55;;;;;;;3.37;0.90;;;-0.70;97.80;;;;;;4968579;28;20029;-71
2022/01/21 02:55:47;;;;;;;2.87;0.67;;;-0.80;97.40;;;;;;4974712;28;20030;-71
2022/01/21 02:58:13;;;;;;;1.88;0.57;;;-0.80;97.60;;;;;;4962975;28;20122;-71
2022/01/21 03:00:39;;;;;;;1.70;0.70;;;-0.80;97.60;;;;;;4964966;28;20166;-71
2022/01/21 03:03:05;;;;;;;4.83;1.00;;;-0.80;97.60;;;;;;4965197;28;20027;-71
2022/01/21 03:05:34;;;;;;;2.53;0.63;;;-0.80;97.60;;;;;;4969442;28;20019;-71
2022/01/21 03:08:00;;;;;;;2.25;0.68;;;-0.90;97.80;;;;;;4961166;28;20031;-71
2022/01/21 03:10:26;;;;;;;2.25;0.80;;;-0.90;97.60;;;;;;4969378;28;20110;-71
2022/01/21 03:12:52;;;;;;;4.37;1.27;;;-0.90;97.70;;;;;;4971694;28;20781;-71
2022/01/21 03:15:18;;;;;;;4.68;1.08;;;-0.90;97.20;;;;;;4964763;28;20459;-71
2022/01/21 03:17:45;;;;;;;3.07;1.23;;;-1.00;97.70;;;;;;4968950;28;20027;-71
2022/01/21 03:20:11;;;;;;;4.65;0.75;;;-1.00;97.30;;;;;;4970648;28;20022;-71
2022/01/21 03:22:37;;;;;;;2.85;1.15;;;-0.90;97.00;;;;;;4965884;28;20035;-71
2022/01/21 03:25:05;;;;;;;3.00;0.90;;;-1.00;96.90;;;;;;4963440;28;20022;-71
2022/01/21 03:27:31;;;;;;;7.85;1.08;;;-0.90;97.10;;;;;;4970774;28;20929;-71
2022/01/21 03:29:58;;;;;;;3.65;0.88;;;-1.00;96.80;;;;;;4974149;28;20041;-71
2022/01/21 03:32:25;;;;;;;4.28;1.05;;;-0.90;96.70;;;;;;4971535;28;20027;-71
2022/01/21 03:34:51;;;;;;;2.45;0.85;;;-0.90;97.10;;;;;;4963970;28;20026;-71
2022/01/21 03:37:17;;;;;;;2.13;0.83;;;-0.90;97.00;;;;;;4963671;28;20085;-71
2022/01/21 03:39:45;;;;;;;1.70;0.80;;;-0.90;97.00;;;;;;4964637;28;20078;-71
2022/01/21 03:42:11;;;;;;;2.85;0.77;;;-0.90;97.20;;;;;;4970382;28;20081;-71
2022/01/21 03:44:38;;;;;;;2.50;1.00;;;-1.00;97.50;;;;;;4969991;28;20030;-68
2022/01/21 03:47:04;;;;;;;2.50;1.08;;;-1.00;97.50;;;;;;4972395;28;20101;-69
2022/01/21 03:49:37;;;;;;;1.45;0.95;;;-1.00;97.40;;;;;;4961217;28;20114;-68
2022/01/21 03:52:05;;;;;;;2.40;1.38;;;-1.00;97.40;;;;;;4961498;28;20022;-69
2022/01/21 03:54:32;;;;;;;2.65;0.77;;;-1.00;97.30;;;;;;4989511;28;20082;-68
2022/01/21 03:56:59;;;;;;;3.80;1.48;;;-1.00;97.00;;;;;;4968884;28;20061;-68
2022/01/21 03:59:26;;;;;;;4.22;1.02;;;-1.00;97.00;;;;;;4962041;28;20066;-69
2022/01/21 04:01:51;;;;;;;4.05;1.58;;;-1.00;96.80;;;;;;4963423;28;20046;-68
2022/01/21 04:04:18;;;;;;;1.53;1.40;;;-1.00;96.50;;;;;;4962963;28;20535;-69
2022/01/21 04:06:44;;;;;;;4.35;1.30;;;-1.00;96.40;;;;;;4963463;28;20468;-68
2022/01/21 04:09:09;;;;;;;6.03;1.20;;;-1.10;97.00;;;;;;4963858;28;20045;-68
2022/01/21 04:11:35;;;;;;;2.00;0.93;;;-1.10;96.30;;;;;;4975942;28;20029;-68
2022/01/21 04:14:01;;;;;;;4.67;0.90;;;-1.10;95.80;;;;;;4967639;28;20034;-71
2022/01/21 04:16:26;;;;;;;6.20;1.33;;;-1.10;95.50;;;;;;4966171;28;20030;-72
2022/01/21 04:18:52;;;;;;;2.33;1.07;;;-1.10;95.20;;;;;;4969609;28;20389;-70
2022/01/21 04:21:18;;;;;;;2.97;1.17;;;-1.20;95.30;;;;;;4958219;28;20030;-71
2022/01/21 04:23:43;;;;;;;1.23;0.83;;;-1.20;95.30;;;;;;4972690;28;20029;-68
2022/01/21 04:26:09;;;;;;;2.87;0.90;;;-1.20;95.20;;;;;;4959396;28;20022;-68
2022/01/21 04:28:36;;;;;;;2.67;1.00;;;-1.20;95.30;;;;;;4967925;28;20412;-71
2022/01/21 04:31:01;;;;;;;3.10;1.08;;;-1.20;95.20;;;;;;4958117;28;20050;-71
2022/01/21 04:33:27;;;;;;;7.47;1.60;;;-1.20;95.40;;;;;;4970129;28;20976;-71
2022/01/21 04:35:53;;;;;;;2.67;1.23;;;-1.20;95.00;;;;;;4968085;28;20475;-69
2022/01/21 04:38:21;;;;;;;3.30;1.23;;;-1.10;95.10;;;;;;4962365;28;20526;-68
2022/01/21 04:49:14;;;;;;;2.70;1.33;;;-1.20;95.10;;;;;;4961357;28;20048;-68
2022/01/21 04:51:48;;;;;;;3.70;1.23;;;-1.30;95.30;;;;;;4965362;28;20452;-69
2022/01/21 04:54:14;;;;;;;1.95;1.00;;;-1.30;95.30;;;;;;4965295;28;20642;-68
2022/01/21 04:56:40;;;;;;;5.03;1.20;;;-1.30;95.60;;;;;;4963694;28;20101;-68
2022/01/21 04:59:05;;;;;;;3.13;1.20;;;-1.30;95.50;;;;;;4971049;28;20110;-68
2022/01/21 05:01:31;;;;;;;6.43;2.00;;;-1.30;95.60;;;;;;4967114;28;20456;-68
2022/01/21 05:03:58;;;;;;;2.17;1.13;;;-1.30;95.70;;;;;;4966262;28;20737;-69
2022/01/21 05:06:23;;;;;;;2.42;1.13;;;-1.30;95.60;;;;;;4969257;28;20114;-69
2022/01/21 05:08:54;;;;;;;2.70;0.83;;;-1.30;96.00;;;;;;4969438;28;20236;-68
2022/01/21 05:11:21;;;;;;;3.55;1.10;;;-1.30;95.60;;;;;;4973808;28;20452;-68
2022/01/21 05:14:10;;;;;;;3.90;1.10;;;-1.40;95.50;;;;;;4970399;28;20066;-68
2022/01/21 05:16:39;;;;;;;7.63;1.35;;;-1.40;95.60;;;;;;4966980;28;20030;-69
2022/01/21 05:19:13;;;;;;;4.90;1.20;;;-1.40;95.30;;;;;;4975287;28;20022;-68
2022/01/21 05:21:38;;;;;;;1.40;1.00;;;-1.40;95.40;;;;;;4965428;28;20037;-68
2022/01/21 05:24:06;;;;;;;2.80;0.97;;;-1.40;95.10;;;;;;4988792;28;20480;-71
2022/01/21 05:26:38;;;;;;;3.65;1.80;;;-1.40;95.40;;;;;;4968813;28;20022;-71
2022/01/21 05:29:05;;;;;;;3.70;1.10;;;-1.40;95.40;;;;;;4969924;28;20018;-71
2022/01/21 05:31:31;;;;;;;2.35;0.98;;;-1.40;95.20;;;;;;4966238;28;20122;-71
2022/01/21 05:33:58;;;;;;;6.07;1.70;;;-1.30;95.40;;;;;;4964946;28;20023;-71
2022/01/21 05:36:24;;;;;;;4.30;1.25;;;-1.40;95.20;;;;;;4968319;28;20290;-71
2022/01/21 05:38:51;;;;;;;8.00;1.60;;;-1.40;95.20;;;;;;4968353;28;20030;-71
2022/01/21 05:41:19;;;;;;;2.47;1.30;;;-1.40;95.70;;;;;;4969455;28;20628;-71
2022/01/21 05:43:46;;;;;;;3.67;0.98;;;-1.40;95.50;;;;;;4967763;28;20034;-72
2022/01/21 05:46:26;;;;;;;4.63;1.10;;;-1.40;95.50;;;;;;4972596;28;20034;-71
2022/01/21 05:48:52;;;;;;;3.42;0.90;;;-1.50;95.30;;;;;;4964111;28;20750;-71
2022/01/21 05:51:19;;;;;;;4.00;1.25;;;-1.50;95.40;;;;;;4967713;28;20030;-71
2022/01/21 05:53:46;;;;;;;1.73;0.88;;;-1.50;95.50;;;;;;4967090;28;20923;-71
2022/01/21 05:56:12;;;;;;;2.72;1.27;;;-1.50;95.50;;;;;;4968278;28;20106;-70
2022/01/21 05:58:39;;;;;;;5.43;1.30;;;-1.40;95.50;;;;;;4962982;28;20043;-71
2022/01/21 06:01:05;;;;;;;6.30;1.40;;;-1.50;95.30;;;;;;4968455;28;20033;-71
2022/01/21 06:03:32;;;;;;;5.20;1.77;;;-1.50;95.20;;;;;;4966694;28;20077;-71
2022/01/21 06:05:59;;;;;;;1.20;0.70;;;-1.50;95.40;;;;;;4970723;28;20538;-71
2022/01/21 06:08:25;;;;;;;3.28;1.00;;;-1.50;95.40;;;;;;4966642;28;20044;-70
2022/01/21 06:10:51;;;;;;;6.85;1.20;;;-1.50;95.60;;;;;;4961676;28;20030;-71
2022/01/21 06:13:18;;;;;;;3.53;1.23;;;-1.50;95.20;;;;;;4971573;28;20057;-71
2022/01/21 06:15:45;;;;;;;1.05;0.80;;;-1.50;95.40;;;;;;4969064;28;20665;-71
2022/01/21 06:18:12;;;;;;;;;;;-1.60;95.30;;;;;;4969156;28;20533;-71
2022/01/21 06:20:38;;;;;;;4.93;0.70;;;-1.60;95.10;;;;;;4976619;28;19910;-70
2022/01/21 06:23:04;;;;;;;3.13;0.90;;;-1.50;95.00;;;;;;4956597;28;20026;-71
2022/01/21 06:25:30;;;;;;;3.47;0.82;;;-1.60;94.90;;;;;;4972730;28;20027;-70
2022/01/21 06:27:57;;;;;;;4.93;1.20;;;-1.60;95.10;;;;;;4963985;28;20810;-71
2022/01/21 06:30:24;;;;;;;5.03;1.90;;;-1.60;95.10;;;;;;4971697;28;20448;-72
2022/01/21 06:32:49;;;;;;;3.65;1.00;;;-1.50;95.10;;;;;;4971084;28;20027;-71
2022/01/21 06:35:16;;;;;;;4.10;1.00;;;-1.60;95.10;;;;;;4963993;28;20494;-71
2022/01/21 06:37:42;;;;;;;2.90;1.05;;;-1.60;94.80;;;;;;4969641;28;20023;-70
2022/01/21 06:40:09;;;;;;;6.23;0.93;;;-1.50;95.00;;;;;;4965577;28;20033;-71
2022/01/21 06:42:36;;;;;;;3.17;1.08;;;-1.50;94.60;;;;;;4974198;28;20383;-71
2022/01/21 06:45:03;;;;;;;2.38;0.90;;;-1.40;94.40;;;;;;4969131;28;20082;-71
2022/01/21 06:47:29;;;;;;;;;;;-1.30;93.90;;;;;;4966297;28;20042;-70
2022/01/21 06:49:59;;;;;;;2.55;1.05;;;-1.20;93.50;;;;;;4971737;28;19913;-71
2022/01/21 06:52:26;;;;;;;4.45;0.85;;;-1.10;93.20;;;;;;4970347;28;20064;-71
2022/01/21 06:54:52;;;;;;;2.78;0.98;;;-1.10;92.80;;;;;;4966193;28;20207;-71
2022/01/21 06:57:18;;;;;;;4.47;1.70;;;-1.20;93.00;;;;;;4967675;28;20462;-71
2022/01/21 06:59:44;;;;;;;3.50;0.93;;;-1.20;92.70;;;;;;4968747;28;20361;-71
2022/01/21 07:02:10;;;;;;;4.07;1.67;;;-1.20;92.90;;;;;;4962976;28;20046;-70
2022/01/21 07:04:35;;;;;;;5.03;1.30;;;-1.10;92.90;;;;;;4968627;28;20737;-71
2022/01/21 07:07:02;;;;;;;7.70;1.30;;;-0.50;92.10;;;;;;4961286;28;20091;-71
2022/01/21 07:09:27;;;;;;;1.33;0.88;;;0.20;90.00;;;;;;4970852;28;20034;-71
2022/01/21 07:11:53;;;;;;;4.23;1.00;;;0.80;85.90;;;;;;4985584;28;20080;-71
2022/01/21 07:14:21;;;;;;;3.87;0.93;;;1.30;81.90;;;;;;4968389;28;20811;-71
2022/01/21 07:16:47;;;;;;;2.70;0.60;;;1.90;77.40;;;;;;4969072;28;20026;-71
2022/01/21 07:19:13;;;;;;;3.60;0.80;;;2.60;74.30;;;;;;4968213;28;20045;-72
2022/01/21 07:21:40;;;;;;;3.33;1.13;;;3.50;70.20;;;;;;4970746;28;20038;-71
2022/01/21 07:24:06;;;;;;;5.68;1.13;;;4.20;63.60;;;;;;4963262;28;20081;-72
2022/01/21 07:26:32;;;;;;;4.13;1.85;;;4.60;59.70;;;;;;4965802;28;20018;-71
2022/01/21 07:28:58;;;;;;;3.42;0.77;;;5.00;58.50;;;;;;4958532;28;20022;-72
2022/01/21 07:31:25;;;;;;;1.33;0.80;;;5.50;57.00;;;;;;4970926;28;20479;-71
2022/01/21 07:33:50;;;;;;;2.75;0.80;;;5.90;54.20;;;;;;4963126;28;20121;-72
2022/01/21 07:36:16;;;;;;;3.73;1.00;;;6.30;53.00;;;;;;4966996;28;20048;-71
2022/01/21 07:38:42;;;;;;;2.97;0.80;;;6.30;52.40;;;;;;4962595;28;20531;-73
2022/01/21 07:41:07;;;;;;;2.03;0.83;;;6.50;50.80;;;;;;4968978;28;20022;-76
2022/01/21 07:43:34;;;;;;;2.27;0.70;;;6.40;50.70;;;;;;4971609;28;20105;-72
2022/01/21 07:46:00;;;;;;;1.92;0.95;;;6.70;49.90;;;;;;4967975;28;20034;-74
2022/01/21 07:48:26;;;;;;;3.27;0.80;;;6.50;49.70;;;;;;4970515;28;20488;-79
2022/01/21 07:50:51;;;;;;;2.50;0.93;;;6.20;50.00;;;;;;4969557;28;20025;-72
2022/01/21 07:53:17;;;;;;;3.13;1.00;;;6.50;51.30;;;;;;4961524;28;20411;-72
2022/01/21 07:55:44;;;;;;;2.67;0.70;;;6.90;48.90;;;;;;4968416;28;20028;-73
2022/01/21 07:58:11;;;;;;;4.38;1.20;;;7.10;47.60;;;;;;4959755;28;20380;-73
2022/01/21 08:00:37;;;;;;;2.17;0.90;;;6.70;48.00;;;;;;4972722;28;20149;-72
2022/01/21 08:03:03;;;;;;;2.53;0.83;;;6.10;49.60;;;;;;4967382;28;20022;-73
2022/01/21 08:05:31;;;;;;;5.37;1.53;;;5.50;50.30;;;;;;4971577;28;20033;-71
2022/01/21 08:07:58;;;;;;;8.25;1.00;;;4.80;52.30;;;;;;4965377;28;20262;-74
2022/01/21 08:10:24;;;;;;;5.80;1.30;;;4.80;53.20;;;;;;4972507;28;20484;-72
2022/01/21 08:12:50;;;;;;;5.33;1.07;;;4.60;53.60;;;;;;4969562;28;20131;-71
2022/01/21 08:15:16;;;;;;;2.22;0.98;;;4.30;54.00;;;;;;4962859;28;20034;-72
2022/01/21 08:17:42;;;;;;;1.03;0.70;;;3.90;55.10;;;;;;4963034;28;20353;-71
2022/01/21 08:20:08;;;;;;;3.40;1.13;;;3.50;56.80;;;;;;4965531;28;20254;-71
2022/01/21 08:22:34;;;;;;;2.83;1.10;;;3.10;58.20;;;;;;4969179;28;20027;-71
2022/01/21 08:24:59;;;;;;;3.20;0.67;;;2.90;59.70;;;;;;4964761;28;20758;-72
2022/01/21 08:27:26;;;;;;;3.40;1.03;;;2.70;60.20;;;;;;4966783;28;20604;-71
2022/01/21 08:29:52;;;;;;;2.40;0.60;;;2.60;60.20;;;;;;4973679;28;20054;-75
2022/01/21 08:32:20;;;;;;;1.47;0.93;;;2.70;60.80;;;;;;4964514;28;20034;-71
2022/01/21 08:34:45;;;;;;;3.53;0.82;;;2.60;60.20;;;;;;4970664;28;20146;-71
2022/01/21 08:37:13;;;;;;;3.90;0.80;;;2.50;60.30;;;;;;4962893;28;20059;-71
2022/01/21 08:39:39;;;;;;;1.65;0.93;;;2.50;62.90;;;;;;4968175;28;20337;-72
2022/01/21 08:42:06;;;;;;;2.87;0.80;;;3.70;60.60;;;;;;4965251;28;20156;-72
2022/01/21 08:44:32;;;;;;;1.00;0.75;;;4.40;56.80;;;;;;4964344;28;20131;-77
2022/01/21 08:46:58;;;;;;;4.75;1.83;;;4.70;55.10;;;;;;4966609;28;20510;-72
2022/01/21 08:49:24;;;;;;;2.87;0.83;;;5.60;52.30;;;;;;4963563;28;20034;-72
2022/01/21 08:51:53;;;;;;;3.00;1.00;;;6.30;49.90;;;;;;4970372;28;20095;-72
2022/01/21 08:54:19;;;;;;;3.47;1.00;;;7.10;48.20;;;;;;4967427;28;20037;-72
2022/01/21 08:56:48;;;;;;;;;;;7.80;45.60;;;;;;4968139;28;20030;-72
2022/01/21 08:59:14;;;;;;;4.32;1.52;;;8.50;44.10;;;;;;4963079;28;20440;-72
2022/01/21 09:01:40;;;;;;;2.90;1.00;;;9.20;42.50;;;;;;4969744;28;20043;-72
2022/01/21 09:04:06;;;;;;;2.13;0.77;;;10.00;41.80;;;;;;4961839;28;20038;-72
2022/01/21 09:06:31;;;;;;;2.63;1.10;;;10.60;39.10;;;;;;4961748;28;20072;-72
2022/01/21 09:08:58;;;;;;;3.65;0.93;;;10.50;39.30;;;;;;4958257;28;20105;-73
2022/01/21 09:11:24;;;;;;;2.80;0.90;;;10.80;39.00;;;;;;4971764;28;20027;-73
2022/01/21 09:13:50;;;;;;;3.20;1.17;;;11.30;38.40;;;;;;4965261;28;20474;-72
2022/01/21 09:16:17;;;;;;;2.30;1.13;;;11.60;37.10;;;;;;4969408;28;20415;-72
2022/01/21 09:18:46;;;;;;;1.55;0.90;;;11.50;36.60;;;;;;4971533;28;20065;-72
2022/01/21 09:21:20;;;;;;;2.80;0.75;;;11.30;37.20;;;;;;4962305;28;20026;-72
2022/01/21 09:23:49;;;;;;;2.13;1.20;;;11.10;37.00;;;;;;4969760;28;20042;-72
2022/01/21 09:26:17;;;;;;;2.50;1.20;;;11.00;36.50;;;;;;4961023;28;20611;-73
2022/01/21 09:28:46;;;;;;;3.58;1.70;;;11.40;36.30;;;;;;4968072;28;20022;-72
2022/01/21 09:31:14;;;;;;;3.00;1.25;;;11.50;36.70;;;;;;4963913;28;20033;-73
2022/01/21 09:33:40;;;;;;;5.50;0.82;;;12.00;35.60;;;;;;4968186;28;20037;-72
2022/01/21 09:36:08;;;;;;;4.25;1.35;;;11.70;35.50;;;;;;4960598;28;20019;-72
2022/01/21 09:38:33;;;;;;;2.67;0.85;;;11.40;35.90;;;;;;4968146;28;20046;-72
2022/01/21 09:41:01;;;;;;;3.13;1.20;;;11.50;36.50;;;;;;4964112;28;20103;-72
2022/01/21 09:43:27;;;;;;;3.65;1.08;;;12.00;35.20;;;;;;4964828;28;20022;-72
2022/01/21 09:45:55;;;;;;;3.35;1.10;;;11.80;34.80;;;;;;4965068;28;20093;-72
2022/01/21 09:48:29;;;;;;;6.80;1.17;;;11.70;35.20;;;;;;4967888;28;20038;-73
2022/01/21 09:50:59;;;;;;;2.30;1.08;;;12.10;34.70;;;;;;4964420;28;20058;-72
2022/01/21 09:53:33;;;;;;;1.60;1.00;;;12.00;34.40;;;;;;4976654;28;20074;-72
2022/01/21 09:56:00;;;;;;;1.92;0.80;;;11.60;35.00;;;;;;4973529;28;20031;-72
2022/01/21 09:58:28;;;;;;;1.95;0.95;;;11.60;35.00;;;;;;4966265;28;20023;-73
2022/01/21 10:00:58;;;;;;;3.90;0.93;;;11.70;34.60;;;;;;4970571;28;20574;-72
2022/01/21 10:03:25;;;;;;;1.88;0.90;;;11.50;34.80;;;;;;4970665;28;20030;-72
2022/01/21 10:05:52;;;;;;;3.05;0.90;;;11.30;35.10;;;;;;4970924;28;20030;-72
2022/01/21 10:08:21;;;;;;;1.95;0.80;;;11.80;34.40;;;;;;4970877;28;20030;-72
2022/01/21 10:10:48;;;;;;;2.78;0.90;;;11.40;34.00;;;;;;4966867;28;20036;-72
2022/01/21 10:13:19;;;;;;;2.20;0.73;;;11.10;35.10;;;;;;4973064;28;20031;-73
2022/01/21 10:15:46;;;;;;;3.67;1.00;;;11.00;34.80;;;;;;4968435;28;20026;-72
2022/01/21 10:18:14;;;;;;;1.65;0.85;;;11.20;35.10;;;;;;4973923;28;20098;-72
2022/01/21 10:21:01;;;;;;;2.40;0.90;;;11.00;35.20;;;;;;4970206;28;20461;-72
2022/01/21 10:23:30;;;;;;;2.92;0.82;;;11.20;35.70;;;;;;4974554;28;20116;-73
2022/01/21 10:26:25;;;;;;;2.30;1.00;;;11.30;35.00;;;;;;4967439;28;21590;-72
2022/01/21 10:28:55;;;;;;;2.10;0.70;;;11.60;33.80;;;;;;4953158;28;20077;-73
2022/01/21 10:31:24;;;;;;;3.22;0.80;;;11.20;34.70;;;;;;4972899;28;20044;-73
2022/01/21 10:33:52;;;;;;;2.88;1.08;;;11.50;34.20;;;;;;4967355;28;20030;-73
2022/01/21 10:36:25;;;;;;;4.47;1.00;;;11.60;34.30;;;;;;4964451;28;20018;-73
2022/01/21 10:39:13;;;;;;;1.45;0.77;;;11.30;33.90;;;;;;4969250;28;20113;-73
2022/01/21 10:41:45;;;;;;;2.65;0.88;;;11.30;34.40;;;;;;4967971;28;20100;-74
2022/01/21 10:44:17;;;;;;;1.67;0.90;;;11.50;34.00;;;;;;4969755;28;20027;-73
2022/01/21 10:46:59;;;;;;;1.98;0.80;;;11.40;33.60;;;;;;4960946;28;20026;-73
2022/01/21 10:49:25;;;;;;;2.88;1.20;;;11.30;34.30;;;;;;4969979;28;20027;-73
2022/01/21 10:51:52;;;;;;;1.55;0.80;;;11.10;34.80;;;;;;4966856;28;20038;-73
2022/01/21 10:54:22;;;;;;;1.95;0.82;;;11.00;35.20;;;;;;4970450;28;20047;-73
2022/01/21 10:57:15;;;;;;;3.60;0.93;;;11.00;34.50;;;;;;4966359;28;20022;-73
2022/01/21 10:59:49;;;;;;;2.58;0.90;;;10.70;35.30;;;;;;4971825;28;20045;-73
2022/01/21 11:02:41;;;;;;;2.53;1.00;;;10.60;34.80;;;;;;4971245;28;20480;-73
2022/01/21 11:05:15;;;;;;;4.03;1.58;;;10.30;35.50;;;;;;4971787;28;20030;-73
2022/01/21 11:07:54;;;;;;;1.92;0.75;;;10.00;35.90;;;;;;4967082;28;20030;-73
2022/01/21 11:10:32;;;;;;;1.10;0.43;;;9.80;35.90;;;;;;4973383;28;20136;-72
2022/01/21 11:13:18;;;;;;;2.85;1.00;;;9.60;36.90;;;;;;4972540;28;20019;-73
2022/01/21 11:15:58;;;;;;;3.78;1.10;;;8.90;37.70;;;;;;4975504;28;20037;-74
2022/01/21 11:18:25;;;;;;;1.85;0.65;;;8.20;39.60;;;;;;4970191;28;20094;-74
2022/01/21 11:21:08;;;;;;;1.75;0.82;;;8.00;40.70;;;;;;4967479;28;20036;-75
2022/01/21 11:23:36;;;;;;;1.30;0.75;;;7.50;41.20;;;;;;4969758;28;20042;-76
2022/01/21 11:26:08;;;;;;;2.35;0.80;;;7.20;41.30;;;;;;4969564;28;20030;-77
2022/01/21 11:28:49;;;;;;;1.30;0.60;;;7.10;42.70;;;;;;4966604;28;20023;-74
2022/01/21 11:31:19;;;;;;;1.77;1.10;;;7.20;42.10;;;;;;4969532;28;20026;-73
2022/01/21 11:33:46;;;;;;;1.95;0.85;;;7.00;42.60;;;;;;4965859;28;20038;-77
2022/01/21 11:36:18;;;;;;;4.80;0.85;;;6.90;43.60;;;;;;4969398;28;20052;-73
2022/01/21 11:38:45;;;;;;;1.60;0.75;;;6.80;43.30;;;;;;4966982;28;20018;-70
2022/01/21 11:41:14;;;;;;;2.63;1.10;;;6.70;43.80;;;;;;4969454;28;20100;-73
2022/01/21 11:43:48;;;;;;;3.92;1.27;;;6.70;57.10;;;;;;4962299;28;20066;-73
2022/01/21 11:49:04;;;;;;;1.73;0.98;;;7.00;53.30;;;;;;4976025;28;20019;-73
2022/01/21 11:51:34;;;;;;;3.10;0.95;;;7.20;51.70;;;;;;4960020;28;20081;-72
2022/01/21 11:54:05;;;;;;;2.85;1.02;;;7.60;45.10;;;;;;4973092;28;20041;-73
2022/01/21 11:56:37;;;;;;;1.38;0.88;;;6.80;45.70;;;;;;4977348;28;20030;-73
2022/01/21 11:59:12;;;;;;;4.97;0.88;;;6.50;46.30;;;;;;4969236;28;20624;-72
2022/01/21 12:01:46;;;;;;;2.70;1.00;;;6.20;47.20;;;;;;4966718;28;20071;-73
2022/01/21 12:04:13;;;;;;;2.42;0.70;;;5.90;48.30;;;;;;4965986;28;20104;-73
2022/01/21 12:06:44;;;;;;;;;;;5.80;48.80;;;;;;4958585;28;20022;-73
2022/01/21 12:09:13;;;;;;;4.35;1.00;;;5.70;49.00;;;;;;4968286;28;19924;-72
2022/01/21 12:11:40;;;;;;;1.50;1.05;;;5.50;49.40;;;;;;4970676;28;20018;-72
2022/01/21 12:14:38;;;;;;;2.63;1.02;;;5.50;49.80;;;;;;4967578;28;20022;-73
2022/01/21 12:17:18;;;;;;;;;;;5.40;50.40;;;;;;4966714;28;20022;-72
2022/01/21 12:19:44;;;;;;;3.55;1.17;;;5.20;51.00;;;;;;4969166;28;19995;-73
2022/01/21 12:22:17;;;;;;;4.27;0.97;;;5.10;50.90;;;;;;4969790;28;20105;-73
2022/01/21 12:25:05;;;;;;;5.43;1.10;;;5.10;51.40;;;;;;4969401;28;20095;-73
2022/01/21 12:27:31;;;;;;;5.83;1.20;;;5.20;52.30;;;;;;4969636;28;20019;-73
2022/01/21 12:30:23;;;;;;;4.32;1.00;;;5.10;52.40;;;;;;4969296;28;20769;-73
2022/01/21 12:33:01;;;;;;;1.70;1.02;;;5.10;52.90;;;;;;4968634;28;20025;-74
2022/01/21 12:35:28;;;;;;;3.75;1.15;;;5.20;52.30;;;;;;4969349;28;20115;-74
2022/01/21 12:41:17;;;;;;;5.55;1.27;;;5.10;52.90;;;;;;4963851;28;20034;-73
2022/01/21 12:43:46;;;;;;;2.17;1.23;;;5.00;52.70;;;;;;4965808;28;20109;-73
2022/01/21 12:46:17;;;;;;;2.72;1.10;;;4.90;52.30;;;;;;4970488;28;20061;-80
2022/01/21 12:48:46;;;;;;;3.38;1.15;;;4.70;53.60;;;;;;4960546;28;20093;-78
2022/01/21 12:51:56;;;;;;;4.45;1.30;;;4.70;54.60;;;;;;4971205;28;20829;-74
2022/01/21 12:56:54;;;;;;;5.00;1.13;;;4.40;55.20;;;;;;4968983;28;20068;-74
2022/01/21 12:59:25;;;;;;;3.42;1.27;;;4.50;55.60;;;;;;4965992;28;20478;-75
2022/01/21 13:01:52;;;;;;;2.13;1.20;;;4.50;55.50;;;;;;4966963;28;20372;-74
2022/01/21 13:04:39;;;;;;;2.95;1.20;;;4.50;55.20;;;;;;4964803;28;20057;-74
2022/01/21 13:07:26;;;;;;;3.15;1.30;;;4.50;55.90;;;;;;4969660;28;20069;-76
2022/01/21 13:10:01;;;;;;;3.65;1.10;;;4.60;55.50;;;;;;4962684;28;20030;-72
2022/01/21 13:15:38;;;;;;;4.40;1.10;;;4.30;55.60;;;;;;4969058;28;20022;-73
2022/01/21 13:18:12;;;;;;;5.03;1.20;;;4.20;56.40;;;;;;4988762;28;20037;-72
2022/01/21 13:20:40;;;;;;;3.00;1.65;;;4.10;56.40;;;;;;4985755;28;20108;-70
2022/01/21 13:23:07;;;;;;;8.68;1.42;;;4.10;62.90;;;;;;4963528;28;20018;-71
2022/01/21 13:25:33;;;;;;;3.92;1.10;;;4.00;57.40;;;;;;4972668;28;20022;-71
2022/01/21 13:28:04;;;;;;;2.45;1.23;;;3.90;58.80;;;;;;4970013;28;20032;-70
2022/01/21 13:30:34;;;;;;;3.13;1.00;;;3.90;59.10;;;;;;4971060;28;20038;-70
2022/01/21 13:33:01;;;;;;;4.03;1.27;;;3.80;59.30;;;;;;4969898;28;20034;-70
2022/01/21 13:35:29;;;;;;;6.63;1.35;;;3.90;59.90;;;;;;4972986;28;20039;-75
2022/01/21 13:38:01;;;;;;;3.88;1.38;;;3.90;59.90;;;;;;4960338;28;20026;-71
2022/01/21 13:40:30;;;;;;;2.97;0.95;;;3.80;60.70;;;;;;4970148;28;20437;-71
2022/01/21 13:43:12;;;;;;;5.38;1.30;;;3.80;60.40;;;;;;4968301;28;20034;-72
2022/01/21 13:45:41;;;;;;;3.35;1.10;;;3.70;60.30;;;;;;4965320;28;20031;-71
2022/01/21 13:48:08;;;;;;;3.60;1.20;;;3.60;60.40;;;;;;4968446;28;20031;-71
2022/01/21 13:50:35;;;;;;;1.50;1.10;;;3.40;61.20;;;;;;4969302;28;20021;-70
2022/01/21 13:53:04;;;;;;;2.67;1.25;;;3.30;61.30;;;;;;4975274;28;20097;-70
2022/01/21 13:55:43;;;;;;;3.00;1.00;;;3.20;62.30;;;;;;4971016;28;20054;-70
2022/01/21 13:58:10;;;;;;;4.25;1.38;;;3.10;62.30;;;;;;4971680;28;20407;-70
2022/01/21 14:00:48;;;;;;;3.83;0.90;;;3.00;62.50;;;;;;4964402;28;20023;-71
2022/01/21 14:03:17;;;;;;;;;;;3.00;63.10;;;;;;4969682;28;20023;-70